sensor_id;sensor_type;location;lat;lon;timestamp;temperature;humidity
69324;DHT22;56470;47.350;8.718;2023-09-18T00:03:04;23.64;55.58
69324;DHT22;56470;47.350;8.718;2023-09-18T00:16:54;23.85;55.73
69324;DHT22;56470;47.350;8.718;2023-09-18T00:27:11;23.71;56.45
69324;DHT22;56470;47.350;8.718;2023-09-18T00:29:57;23.58;57.03
69324;DHT22;56470;47.350;8.718;2023-09-18T00:32:59;23.43;57.15
69324;DHT22;56470;47.350;8.718;2023-09-18T00:35:50;23.29;58.80
69324;DHT22;56470;47.350;8.718;2023-09-18T00:38:56;23.23;58.77
69324;DHT22;56470;47.350;8.718;2023-09-18T00:45:07;23.20;57.89
69324;DHT22;56470;47.350;8.718;2023-09-18T00:47:47;23.12;57.84
69324;DHT22;56470;47.350;8.718;2023-09-18T01:10:17;22.85;58.21
69324;DHT22;56470;47.350;8.718;2023-09-18T01:13:19;22.74;58.92
69324;DHT22;56470;47.350;8.718;2023-09-18T01:16:16;22.70;58.67
69324;DHT22;56470;47.350;8.718;2023-09-18T01:22:19;22.64;59.07
69324;DHT22;56470;47.350;8.718;2023-09-18T01:31:47;22.54;59.74
69324;DHT22;56470;47.350;8.718;2023-09-18T01:42:18;22.63;60.70
69324;DHT22;56470;47.350;8.718;2023-09-18T01:45:51;22.71;61.51
69324;DHT22;56470;47.350;8.718;2023-09-18T01:48:59;22.81;61.24
69324;DHT22;56470;47.350;8.718;2023-09-18T01:59:13;22.60;61.68
69324;DHT22;56470;47.350;8.718;2023-09-18T02:02:21;22.54;60.95
69324;DHT22;56470;47.350;8.718;2023-09-18T02:08:41;22.46;62.50
69324;DHT22;56470;47.350;8.718;2023-09-18T02:36:44;22.36;63.36
69324;DHT22;56470;47.350;8.718;2023-09-18T02:39:57;22.33;63.84
69324;DHT22;56470;47.350;8.718;2023-09-18T02:42:37;22.32;62.95
69324;DHT22;56470;47.350;8.718;2023-09-18T02:45:47;22.33;64.36
69324;DHT22;56470;47.350;8.718;2023-09-18T02:49:23;22.29;64.99
69324;DHT22;56470;47.350;8.718;2023-09-18T02:52:36;22.26;64.30
69324;DHT22;56470;47.350;8.718;2023-09-18T02:55:32;22.16;65.38
69324;DHT22;56470;47.350;8.718;2023-09-18T02:58:06;22.15;64.10
69324;DHT22;56470;47.350;8.718;2023-09-18T03:00:34;22.08;64.32
69324;DHT22;56470;47.350;8.718;2023-09-18T03:02:59;22.01;64.60
69324;DHT22;56470;47.350;8.718;2023-09-18T03:05:27;21.88;64.99
69324;DHT22;56470;47.350;8.718;2023-09-18T03:07:58;21.82;65.28
69324;DHT22;56470;47.350;8.718;2023-09-18T03:10:33;21.84;66.17
69324;DHT22;56470;47.350;8.718;2023-09-18T03:13:08;21.84;65.63
69324;DHT22;56470;47.350;8.718;2023-09-18T03:15:37;21.85;65.68
69324;DHT22;56470;47.350;8.718;2023-09-18T03:18:08;21.89;65.79
69324;DHT22;56470;47.350;8.718;2023-09-18T03:20:34;21.91;65.65
69324;DHT22;56470;47.350;8.718;2023-09-18T03:23:01;21.88;65.89
69324;DHT22;56470;47.350;8.718;2023-09-18T03:25:29;21.89;66.02
69324;DHT22;56470;47.350;8.718;2023-09-18T03:27:58;21.89;66.13
69324;DHT22;56470;47.350;8.718;2023-09-18T03:30:26;21.88;66.16
69324;DHT22;56470;47.350;8.718;2023-09-18T03:32:52;21.91;66.17
69324;DHT22;56470;47.350;8.718;2023-09-18T03:35:19;21.98;66.09
69324;DHT22;56470;47.350;8.718;2023-09-18T03:37:49;22.05;66.31
69324;DHT22;56470;47.350;8.718;2023-09-18T03:40:21;22.06;66.03
69324;DHT22;56470;47.350;8.718;2023-09-18T03:42:52;22.10;66.24
69324;DHT22;56470;47.350;8.718;2023-09-18T03:45:18;22.12;65.99
69324;DHT22;56470;47.350;8.718;2023-09-18T03:47:48;22.13;66.02
69324;DHT22;56470;47.350;8.718;2023-09-18T03:50:49;22.10;65.97
69324;DHT22;56470;47.350;8.718;2023-09-18T04:03:43;22.05;67.82
69324;DHT22;56470;47.350;8.718;2023-09-18T04:06:11;22.09;66.62
69324;DHT22;56470;47.350;8.718;2023-09-18T04:08:49;22.09;67.06
69324;DHT22;56470;47.350;8.718;2023-09-18T04:11:24;22.12;66.73
69324;DHT22;56470;47.350;8.718;2023-09-18T04:14:09;22.09;66.56
69324;DHT22;56470;47.350;8.718;2023-09-18T04:16:34;21.98;66.80
69324;DHT22;56470;47.350;8.718;2023-09-18T04:19:03;21.80;67.15
69324;DHT22;56470;47.350;8.718;2023-09-18T04:21:29;21.70;67.43
69324;DHT22;56470;47.350;8.718;2023-09-18T04:23:57;21.71;67.59
69324;DHT22;56470;47.350;8.718;2023-09-18T04:26:27;21.75;67.72
69324;DHT22;56470;47.350;8.718;2023-09-18T04:28:59;21.81;67.70
69324;DHT22;56470;47.350;8.718;2023-09-18T04:31:25;21.80;67.56
69324;DHT22;56470;47.350;8.718;2023-09-18T04:33:50;21.84;67.70
69324;DHT22;56470;47.350;8.718;2023-09-18T04:36:15;21.87;67.64
69324;DHT22;56470;47.350;8.718;2023-09-18T04:38:41;21.88;67.69
69324;DHT22;56470;47.350;8.718;2023-09-18T04:41:06;21.89;67.53
69324;DHT22;56470;47.350;8.718;2023-09-18T04:43:33;21.91;67.49
69324;DHT22;56470;47.350;8.718;2023-09-18T04:46:00;21.85;67.38
69324;DHT22;56470;47.350;8.718;2023-09-18T04:48:25;21.82;67.45
69324;DHT22;56470;47.350;8.718;2023-09-18T04:50:50;21.78;67.73
69324;DHT22;56470;47.350;8.718;2023-09-18T04:53:16;21.80;67.85
69324;DHT22;56470;47.350;8.718;2023-09-18T04:55:41;21.81;67.91
69324;DHT22;56470;47.350;8.718;2023-09-18T04:58:06;21.82;67.76
69324;DHT22;56470;47.350;8.718;2023-09-18T05:00:32;21.82;67.84
69324;DHT22;56470;47.350;8.718;2023-09-18T05:02:58;21.80;67.82
69324;DHT22;56470;47.350;8.718;2023-09-18T05:05:26;21.73;67.90
69324;DHT22;56470;47.350;8.718;2023-09-18T05:07:51;21.67;68.00
69324;DHT22;56470;47.350;8.718;2023-09-18T05:10:17;21.67;68.06
69324;DHT22;56470;47.350;8.718;2023-09-18T05:12:42;21.63;68.01
69324;DHT22;56470;47.350;8.718;2023-09-18T05:15:08;21.51;68.24
69324;DHT22;56470;47.350;8.718;2023-09-18T05:17:45;21.44;68.89
69324;DHT22;56470;47.350;8.718;2023-09-18T05:20:19;21.40;68.59
69324;DHT22;56470;47.350;8.718;2023-09-18T05:22:45;21.35;68.67
69324;DHT22;56470;47.350;8.718;2023-09-18T05:25:11;21.30;68.93
69324;DHT22;56470;47.350;8.718;2023-09-18T05:27:37;21.29;68.85
69324;DHT22;56470;47.350;8.718;2023-09-18T05:30:14;21.32;69.00
69324;DHT22;56470;47.350;8.718;2023-09-18T05:32:42;21.37;68.96
69324;DHT22;56470;47.350;8.718;2023-09-18T05:35:08;21.37;69.08
69324;DHT22;56470;47.350;8.718;2023-09-18T05:37:36;21.36;69.11
69324;DHT22;56470;47.350;8.718;2023-09-18T05:40:06;21.33;69.29
69324;DHT22;56470;47.350;8.718;2023-09-18T05:42:35;21.32;69.57
69324;DHT22;56470;47.350;8.718;2023-09-18T05:45:00;21.35;69.45
69324;DHT22;56470;47.350;8.718;2023-09-18T05:47:25;21.33;69.72
69324;DHT22;56470;47.350;8.718;2023-09-18T05:49:51;21.36;69.52
69324;DHT22;56470;47.350;8.718;2023-09-18T05:52:16;21.39;69.58
69324;DHT22;56470;47.350;8.718;2023-09-18T05:54:42;21.40;69.56
69324;DHT22;56470;47.350;8.718;2023-09-18T05:57:07;21.40;69.74
69324;DHT22;56470;47.350;8.718;2023-09-18T05:59:32;21.42;69.79
69324;DHT22;56470;47.350;8.718;2023-09-18T06:01:58;21.47;69.82
69324;DHT22;56470;47.350;8.718;2023-09-18T06:04:23;21.53;69.75
69324;DHT22;56470;47.350;8.718;2023-09-18T06:06:49;21.50;69.54
69324;DHT22;56470;47.350;8.718;2023-09-18T06:09:14;21.42;69.49
69324;DHT22;56470;47.350;8.718;2023-09-18T06:11:40;21.35;69.54
69324;DHT22;56470;47.350;8.718;2023-09-18T06:14:05;21.35;69.68
69324;DHT22;56470;47.350;8.718;2023-09-18T06:16:30;21.36;69.79
69324;DHT22;56470;47.350;8.718;2023-09-18T06:18:56;21.36;69.65
69324;DHT22;56470;47.350;8.718;2023-09-18T06:21:21;21.39;69.76
69324;DHT22;56470;47.350;8.718;2023-09-18T06:23:46;21.43;69.75
69324;DHT22;56470;47.350;8.718;2023-09-18T06:26:12;21.49;69.78
69324;DHT22;56470;47.350;8.718;2023-09-18T06:28:37;21.55;69.69
69324;DHT22;56470;47.350;8.718;2023-09-18T06:31:03;21.63;69.60
69324;DHT22;56470;47.350;8.718;2023-09-18T06:33:29;21.67;69.53
69324;DHT22;56470;47.350;8.718;2023-09-18T06:35:54;21.77;69.40
69324;DHT22;56470;47.350;8.718;2023-09-18T06:38:19;21.81;69.30
69324;DHT22;56470;47.350;8.718;2023-09-18T06:40:45;21.84;69.36
69324;DHT22;56470;47.350;8.718;2023-09-18T06:43:10;21.91;69.46
69324;DHT22;56470;47.350;8.718;2023-09-18T06:45:35;21.97;69.47
69324;DHT22;56470;47.350;8.718;2023-09-18T06:48:03;22.02;69.41
69324;DHT22;56470;47.350;8.718;2023-09-18T06:50:29;22.06;69.23
69324;DHT22;56470;47.350;8.718;2023-09-18T06:52:54;22.15;69.35
69324;DHT22;56470;47.350;8.718;2023-09-18T06:55:19;22.15;69.33
69324;DHT22;56470;47.350;8.718;2023-09-18T06:57:45;22.19;69.29
69324;DHT22;56470;47.350;8.718;2023-09-18T07:00:11;22.19;69.39
69324;DHT22;56470;47.350;8.718;2023-09-18T07:02:39;22.20;69.38
69324;DHT22;56470;47.350;8.718;2023-09-18T07:05:05;22.23;69.43
69324;DHT22;56470;47.350;8.718;2023-09-18T07:07:30;22.20;69.42
69324;DHT22;56470;47.350;8.718;2023-09-18T07:09:57;22.20;69.57
69324;DHT22;56470;47.350;8.718;2023-09-18T07:12:22;22.22;69.54
69324;DHT22;56470;47.350;8.718;2023-09-18T07:14:48;22.19;69.48
69324;DHT22;56470;47.350;8.718;2023-09-18T07:17:13;22.19;69.53
69324;DHT22;56470;47.350;8.718;2023-09-18T07:19:39;22.20;69.68
69324;DHT22;56470;47.350;8.718;2023-09-18T07:22:05;22.22;69.68
69324;DHT22;56470;47.350;8.718;2023-09-18T07:24:31;22.26;69.69
69324;DHT22;56470;47.350;8.718;2023-09-18T07:26:56;22.23;69.64
69324;DHT22;56470;47.350;8.718;2023-09-18T07:29:23;22.25;69.72
69324;DHT22;56470;47.350;8.718;2023-09-18T07:31:50;22.20;69.80
69324;DHT22;56470;47.350;8.718;2023-09-18T07:34:15;22.22;69.92
69324;DHT22;56470;47.350;8.718;2023-09-18T07:36:42;22.16;69.95
69324;DHT22;56470;47.350;8.718;2023-09-18T07:39:09;22.17;69.98
69324;DHT22;56470;47.350;8.718;2023-09-18T07:41:34;22.17;70.19
69324;DHT22;56470;47.350;8.718;2023-09-18T07:43:59;22.22;70.20
69324;DHT22;56470;47.350;8.718;2023-09-18T07:46:25;22.25;70.03
69324;DHT22;56470;47.350;8.718;2023-09-18T07:48:50;22.17;70.07
69324;DHT22;56470;47.350;8.718;2023-09-18T07:51:16;22.16;70.21
69324;DHT22;56470;47.350;8.718;2023-09-18T07:53:42;22.16;70.23
69324;DHT22;56470;47.350;8.718;2023-09-18T07:56:08;22.15;70.17
69324;DHT22;56470;47.350;8.718;2023-09-18T07:58:34;22.17;70.12
69324;DHT22;56470;47.350;8.718;2023-09-18T08:01:04;22.13;70.11
69324;DHT22;56470;47.350;8.718;2023-09-18T08:03:30;22.12;70.21
69324;DHT22;56470;47.350;8.718;2023-09-18T08:05:55;22.10;70.28
69324;DHT22;56470;47.350;8.718;2023-09-18T08:08:21;22.10;70.31
69324;DHT22;56470;47.350;8.718;2023-09-18T08:10:47;22.08;70.42
69324;DHT22;56470;47.350;8.718;2023-09-18T08:13:13;22.10;70.34
69324;DHT22;56470;47.350;8.718;2023-09-18T08:15:39;22.12;70.39
69324;DHT22;56470;47.350;8.718;2023-09-18T08:18:04;22.15;70.08
69324;DHT22;56470;47.350;8.718;2023-09-18T08:20:30;22.13;70.14
69324;DHT22;56470;47.350;8.718;2023-09-18T08:22:55;22.09;70.05
69324;DHT22;56470;47.350;8.718;2023-09-18T08:25:21;22.10;70.26
69324;DHT22;56470;47.350;8.718;2023-09-18T08:27:46;22.10;70.46
69324;DHT22;56470;47.350;8.718;2023-09-18T08:30:13;22.15;70.71
69324;DHT22;56470;47.350;8.718;2023-09-18T08:32:39;22.12;70.74
69324;DHT22;56470;47.350;8.718;2023-09-18T08:35:06;22.08;70.84
69324;DHT22;56470;47.350;8.718;2023-09-18T08:37:31;22.01;71.18
69324;DHT22;56470;47.350;8.718;2023-09-18T08:39:57;21.97;71.67
69324;DHT22;56470;47.350;8.718;2023-09-18T08:42:23;22.02;71.55
69324;DHT22;56470;47.350;8.718;2023-09-18T08:44:51;21.98;70.85
69324;DHT22;56470;47.350;8.718;2023-09-18T08:47:18;21.92;70.34
69324;DHT22;56470;47.350;8.718;2023-09-18T08:49:46;21.84;70.18
69324;DHT22;56470;47.350;8.718;2023-09-18T08:52:15;21.73;70.11
69324;DHT22;56470;47.350;8.718;2023-09-18T08:54:40;21.63;70.15
69324;DHT22;56470;47.350;8.718;2023-09-18T08:57:05;21.54;70.56
69324;DHT22;56470;47.350;8.718;2023-09-18T08:59:35;21.43;70.47
69324;DHT22;56470;47.350;8.718;2023-09-18T09:02:01;21.39;70.54
69324;DHT22;56470;47.350;8.718;2023-09-18T09:04:27;21.30;70.45
69324;DHT22;56470;47.350;8.718;2023-09-18T09:06:52;21.23;70.84
69324;DHT22;56470;47.350;8.718;2023-09-18T09:09:17;21.22;71.08
69324;DHT22;56470;47.350;8.718;2023-09-18T09:11:50;21.25;71.26
69324;DHT22;56470;47.350;8.718;2023-09-18T09:14:18;21.23;71.00
69324;DHT22;56470;47.350;8.718;2023-09-18T09:16:51;21.23;71.34
69324;DHT22;56470;47.350;8.718;2023-09-18T09:19:17;21.25;71.23
69324;DHT22;56470;47.350;8.718;2023-09-18T09:21:43;21.15;71.22
69324;DHT22;56470;47.350;8.718;2023-09-18T09:24:10;20.99;71.67
69324;DHT22;56470;47.350;8.718;2023-09-18T09:26:40;20.85;71.90
69324;DHT22;56470;47.350;8.718;2023-09-18T09:29:19;20.70;73.69
69324;DHT22;56470;47.350;8.718;2023-09-18T09:31:45;20.54;73.03
69324;DHT22;56470;47.350;8.718;2023-09-18T09:34:11;20.40;73.41
69324;DHT22;56470;47.350;8.718;2023-09-18T09:36:51;20.30;75.40
69324;DHT22;56470;47.350;8.718;2023-09-18T09:39:16;20.15;74.12
69324;DHT22;56470;47.350;8.718;2023-09-18T09:41:45;20.01;74.58
69324;DHT22;56470;47.350;8.718;2023-09-18T09:44:13;19.84;75.10
69324;DHT22;56470;47.350;8.718;2023-09-18T09:46:45;19.77;76.17
69324;DHT22;56470;47.350;8.718;2023-09-18T09:49:10;19.70;76.03
69324;DHT22;56470;47.350;8.718;2023-09-18T09:51:36;19.58;76.60
69324;DHT22;56470;47.350;8.718;2023-09-18T09:54:01;19.57;76.46
69324;DHT22;56470;47.350;8.718;2023-09-18T09:59:09;19.54;76.86
69324;DHT22;56470;47.350;8.718;2023-09-18T10:01:37;19.49;77.45
69324;DHT22;56470;47.350;8.718;2023-09-18T10:04:04;19.46;77.33
69324;DHT22;56470;47.350;8.718;2023-09-18T10:06:34;19.43;77.13
69324;DHT22;56470;47.350;8.718;2023-09-18T10:09:02;19.51;76.91
69324;DHT22;56470;47.350;8.718;2023-09-18T10:11:30;19.51;76.78
69324;DHT22;56470;47.350;8.718;2023-09-18T10:14:06;19.58;76.73
69324;DHT22;56470;47.350;8.718;2023-09-18T10:16:35;19.51;76.72
69324;DHT22;56470;47.350;8.718;2023-09-18T10:19:27;19.49;78.28
69324;DHT22;56470;47.350;8.718;2023-09-18T10:24:37;19.34;77.47
69324;DHT22;56470;47.350;8.718;2023-09-18T10:27:03;19.09;78.59
69324;DHT22;56470;47.350;8.718;2023-09-18T10:29:33;18.91;79.48
69324;DHT22;56470;47.350;8.718;2023-09-18T10:31:59;18.81;79.75
69324;DHT22;56470;47.350;8.718;2023-09-18T10:34:27;18.68;80.49
69324;DHT22;56470;47.350;8.718;2023-09-18T10:36:56;18.64;80.45
69324;DHT22;56470;47.350;8.718;2023-09-18T10:39:25;18.60;80.47
69324;DHT22;56470;47.350;8.718;2023-09-18T10:41:56;18.60;80.89
69324;DHT22;56470;47.350;8.718;2023-09-18T10:44:28;18.72;80.52
69324;DHT22;56470;47.350;8.718;2023-09-18T10:46:53;18.79;80.48
69324;DHT22;56470;47.350;8.718;2023-09-18T10:49:20;18.78;80.68
69324;DHT22;56470;47.350;8.718;2023-09-18T10:51:48;18.81;80.57
69324;DHT22;56470;47.350;8.718;2023-09-18T10:54:21;18.96;80.37
69324;DHT22;56470;47.350;8.718;2023-09-18T10:56:50;19.01;79.98
69324;DHT22;56470;47.350;8.718;2023-09-18T10:59:15;19.02;79.79
69324;DHT22;56470;47.350;8.718;2023-09-18T11:01:41;18.89;79.86
69324;DHT22;56470;47.350;8.718;2023-09-18T11:04:08;18.88;79.89
69324;DHT22;56470;47.350;8.718;2023-09-18T11:09:29;18.92;79.79
69324;DHT22;56470;47.350;8.718;2023-09-18T11:14:44;18.85;79.36
69324;DHT22;56470;47.350;8.718;2023-09-18T11:17:33;18.94;78.57
69324;DHT22;56470;47.350;8.718;2023-09-18T11:22:39;19.13;77.66
69324;DHT22;56470;47.350;8.718;2023-09-18T11:25:39;19.29;77.22
69324;DHT22;56470;47.350;8.718;2023-09-18T11:28:37;19.36;76.25
69324;DHT22;56470;47.350;8.718;2023-09-18T11:31:03;19.51;76.24
69324;DHT22;56470;47.350;8.718;2023-09-18T11:33:47;19.56;74.47
69324;DHT22;56470;47.350;8.718;2023-09-18T11:41:35;19.47;74.49
69324;DHT22;56470;47.350;8.718;2023-09-18T11:46:35;19.45;74.87
69324;DHT22;56470;47.350;8.718;2023-09-18T11:49:02;19.43;75.38
69324;DHT22;56470;47.350;8.718;2023-09-18T11:51:31;19.47;75.52
69324;DHT22;56470;47.350;8.718;2023-09-18T11:53:57;19.50;75.44
69324;DHT22;56470;47.350;8.718;2023-09-18T11:56:23;19.61;75.42
69324;DHT22;56470;47.350;8.718;2023-09-18T11:58:51;19.73;75.26
69324;DHT22;56470;47.350;8.718;2023-09-18T12:01:19;19.86;75.17
69324;DHT22;56470;47.350;8.718;2023-09-18T12:03:45;19.94;74.87
69324;DHT22;56470;47.350;8.718;2023-09-18T12:06:11;20.08;74.96
69324;DHT22;56470;47.350;8.718;2023-09-18T12:08:42;20.16;74.75
69324;DHT22;56470;47.350;8.718;2023-09-18T12:11:07;20.16;74.32
69324;DHT22;56470;47.350;8.718;2023-09-18T12:13:33;20.13;73.88
69324;DHT22;56470;47.350;8.718;2023-09-18T12:16:00;20.09;73.63
69324;DHT22;56470;47.350;8.718;2023-09-18T12:18:26;20.11;73.89
69324;DHT22;56470;47.350;8.718;2023-09-18T12:20:54;20.22;73.73
69324;DHT22;56470;47.350;8.718;2023-09-18T12:23:21;20.26;73.61
69324;DHT22;56470;47.350;8.718;2023-09-18T12:25:49;20.29;73.64
69324;DHT22;56470;47.350;8.718;2023-09-18T12:28:15;20.29;73.38
69324;DHT22;56470;47.350;8.718;2023-09-18T12:30:42;20.29;73.34
69324;DHT22;56470;47.350;8.718;2023-09-18T12:33:08;20.36;73.22
69324;DHT22;56470;47.350;8.718;2023-09-18T12:35:34;20.43;73.04
69324;DHT22;56470;47.350;8.718;2023-09-18T12:38:00;20.47;72.98
69324;DHT22;56470;47.350;8.718;2023-09-18T12:40:27;20.56;72.79
69324;DHT22;56470;47.350;8.718;2023-09-18T12:42:55;20.51;72.09
69324;DHT22;56470;47.350;8.718;2023-09-18T12:45:22;20.53;72.14
69324;DHT22;56470;47.350;8.718;2023-09-18T12:47:47;20.54;72.32
69324;DHT22;56470;47.350;8.718;2023-09-18T12:50:13;20.61;72.40
69324;DHT22;56470;47.350;8.718;2023-09-18T12:52:39;20.65;72.53
69324;DHT22;56470;47.350;8.718;2023-09-18T12:55:05;20.70;72.50
69324;DHT22;56470;47.350;8.718;2023-09-18T12:57:32;20.71;72.69
69324;DHT22;56470;47.350;8.718;2023-09-18T13:00:00;20.65;72.78
69324;DHT22;56470;47.350;8.718;2023-09-18T13:02:35;20.67;72.92
69324;DHT22;56470;47.350;8.718;2023-09-18T13:05:01;20.65;73.10
69324;DHT22;56470;47.350;8.718;2023-09-18T13:07:29;20.67;72.86
69324;DHT22;56470;47.350;8.718;2023-09-18T13:10:05;20.73;72.67
69324;DHT22;56470;47.350;8.718;2023-09-18T13:12:54;20.70;72.46
69324;DHT22;56470;47.350;8.718;2023-09-18T13:15:33;20.70;71.35
69324;DHT22;56470;47.350;8.718;2023-09-18T13:18:08;20.71;72.37
69324;DHT22;56470;47.350;8.718;2023-09-18T13:20:33;20.70;72.44
69324;DHT22;56470;47.350;8.718;2023-09-18T13:22:59;20.70;72.42
69324;DHT22;56470;47.350;8.718;2023-09-18T13:25:32;20.64;72.21
69324;DHT22;56470;47.350;8.718;2023-09-18T13:28:01;20.68;72.39
69324;DHT22;56470;47.350;8.718;2023-09-18T13:30:27;20.71;72.51
69324;DHT22;56470;47.350;8.718;2023-09-18T13:33:03;20.64;72.25
69324;DHT22;56470;47.350;8.718;2023-09-18T13:35:29;20.63;72.29
69324;DHT22;56470;47.350;8.718;2023-09-18T13:37:57;20.68;72.69
69324;DHT22;56470;47.350;8.718;2023-09-18T13:40:23;20.75;72.81
69324;DHT22;56470;47.350;8.718;2023-09-18T13:42:49;20.81;72.44
69324;DHT22;56470;47.350;8.718;2023-09-18T13:45:15;20.87;71.89
69324;DHT22;56470;47.350;8.718;2023-09-18T13:47:41;20.98;71.96
69324;DHT22;56470;47.350;8.718;2023-09-18T13:50:12;21.08;71.15
69324;DHT22;56470;47.350;8.718;2023-09-18T13:52:40;21.10;70.88
69324;DHT22;56470;47.350;8.718;2023-09-18T13:55:06;21.15;70.51
69324;DHT22;56470;47.350;8.718;2023-09-18T13:57:32;21.18;70.30
69324;DHT22;56470;47.350;8.718;2023-09-18T13:59:59;21.19;69.88
69324;DHT22;56470;47.350;8.718;2023-09-18T14:02:33;21.23;68.25
69324;DHT22;56470;47.350;8.718;2023-09-18T14:04:58;21.23;68.96
69324;DHT22;56470;47.350;8.718;2023-09-18T14:07:24;21.19;69.10
69324;DHT22;56470;47.350;8.718;2023-09-18T14:09:50;21.19;69.21
69324;DHT22;56470;47.350;8.718;2023-09-18T14:12:15;21.29;69.31
69324;DHT22;56470;47.350;8.718;2023-09-18T14:14:42;21.40;69.54
69324;DHT22;56470;47.350;8.718;2023-09-18T14:17:08;21.54;69.40
69324;DHT22;56470;47.350;8.718;2023-09-18T14:19:36;21.60;68.96
69324;DHT22;56470;47.350;8.718;2023-09-18T14:22:07;21.68;69.18
69324;DHT22;56470;47.350;8.718;2023-09-18T14:24:33;21.74;69.24
69324;DHT22;56470;47.350;8.718;2023-09-18T14:27:02;21.77;69.20
69324;DHT22;56470;47.350;8.718;2023-09-18T14:29:28;21.75;69.35
69324;DHT22;56470;47.350;8.718;2023-09-18T14:31:58;21.78;68.92
69324;DHT22;56470;47.350;8.718;2023-09-18T14:34:26;21.82;68.76
69324;DHT22;56470;47.350;8.718;2023-09-18T14:36:51;21.89;68.72
69324;DHT22;56470;47.350;8.718;2023-09-18T14:39:19;21.95;68.61
69324;DHT22;56470;47.350;8.718;2023-09-18T14:41:45;22.01;68.64
69324;DHT22;56470;47.350;8.718;2023-09-18T14:44:10;22.06;68.53
69324;DHT22;56470;47.350;8.718;2023-09-18T14:46:39;22.06;67.89
69324;DHT22;56470;47.350;8.718;2023-09-18T14:49:05;22.10;67.53
69324;DHT22;56470;47.350;8.718;2023-09-18T14:51:35;21.97;66.84
69324;DHT22;56470;47.350;8.718;2023-09-18T14:54:01;21.87;66.79
69324;DHT22;56470;47.350;8.718;2023-09-18T14:56:27;21.77;67.37
69324;DHT22;56470;47.350;8.718;2023-09-18T14:58:53;21.70;67.58
69324;DHT22;56470;47.350;8.718;2023-09-18T15:01:21;21.64;67.71
69324;DHT22;56470;47.350;8.718;2023-09-18T15:03:51;21.64;67.98
69324;DHT22;56470;47.350;8.718;2023-09-18T15:06:20;21.67;67.78
69324;DHT22;56470;47.350;8.718;2023-09-18T15:08:46;21.65;67.64
69324;DHT22;56470;47.350;8.718;2023-09-18T15:11:12;21.68;67.57
69324;DHT22;56470;47.350;8.718;2023-09-18T15:13:38;21.75;67.83
69324;DHT22;56470;47.350;8.718;2023-09-18T15:16:06;21.77;67.39
69324;DHT22;56470;47.350;8.718;2023-09-18T15:18:31;21.77;67.11
69324;DHT22;56470;47.350;8.718;2023-09-18T15:21:00;21.74;66.91
69324;DHT22;56470;47.350;8.718;2023-09-18T15:23:35;21.70;66.78
69324;DHT22;56470;47.350;8.718;2023-09-18T15:26:03;21.74;66.69
69324;DHT22;56470;47.350;8.718;2023-09-18T15:28:29;21.74;66.96
69324;DHT22;56470;47.350;8.718;2023-09-18T15:30:55;21.75;66.71
69324;DHT22;56470;47.350;8.718;2023-09-18T15:33:21;21.73;66.87
69324;DHT22;56470;47.350;8.718;2023-09-18T15:35:48;21.61;66.71
69324;DHT22;56470;47.350;8.718;2023-09-18T15:38:14;21.55;66.95
69324;DHT22;56470;47.350;8.718;2023-09-18T15:40:40;21.49;66.81
69324;DHT22;56470;47.350;8.718;2023-09-18T15:43:07;21.49;66.83
69324;DHT22;56470;47.350;8.718;2023-09-18T15:45:37;21.32;66.44
69324;DHT22;56470;47.350;8.718;2023-09-18T15:48:03;21.13;66.94
69324;DHT22;56470;47.350;8.718;2023-09-18T15:50:30;21.02;67.41
69324;DHT22;56470;47.350;8.718;2023-09-18T15:52:56;21.03;67.54
69324;DHT22;56470;47.350;8.718;2023-09-18T15:55:21;21.05;67.44
69324;DHT22;56470;47.350;8.718;2023-09-18T15:57:47;21.08;67.15
69324;DHT22;56470;47.350;8.718;2023-09-18T16:00:13;21.08;67.02
69324;DHT22;56470;47.350;8.718;2023-09-18T16:02:39;21.05;66.95
69324;DHT22;56470;47.350;8.718;2023-09-18T16:05:05;21.09;66.79
69324;DHT22;56470;47.350;8.718;2023-09-18T16:07:34;21.10;66.77
69324;DHT22;56470;47.350;8.718;2023-09-18T16:10:01;21.08;66.79
69324;DHT22;56470;47.350;8.718;2023-09-18T16:12:26;21.03;66.70
69324;DHT22;56470;47.350;8.718;2023-09-18T16:14:53;20.99;66.67
69324;DHT22;56470;47.350;8.718;2023-09-18T16:17:18;20.96;66.51
69324;DHT22;56470;47.350;8.718;2023-09-18T16:19:44;20.94;66.42
69324;DHT22;56470;47.350;8.718;2023-09-18T16:22:09;20.98;66.37
69324;DHT22;56470;47.350;8.718;2023-09-18T16:24:43;20.95;65.92
69324;DHT22;56470;47.350;8.718;2023-09-18T16:27:09;20.90;65.58
69324;DHT22;56470;47.350;8.718;2023-09-18T16:29:39;20.90;65.38
69324;DHT22;56470;47.350;8.718;2023-09-18T16:32:05;20.88;65.31
69324;DHT22;56470;47.350;8.718;2023-09-18T16:34:32;20.82;64.74
69324;DHT22;56470;47.350;8.718;2023-09-18T16:36:57;20.87;65.03
69324;DHT22;56470;47.350;8.718;2023-09-18T16:39:23;20.92;65.03
69324;DHT22;56470;47.350;8.718;2023-09-18T16:41:51;20.95;64.95
69324;DHT22;56470;47.350;8.718;2023-09-18T16:44:16;20.99;64.92
69324;DHT22;56470;47.350;8.718;2023-09-18T16:46:41;21.02;64.90
69324;DHT22;56470;47.350;8.718;2023-09-18T16:49:07;21.03;64.77
69324;DHT22;56470;47.350;8.718;2023-09-18T16:51:39;21.03;64.79
69324;DHT22;56470;47.350;8.718;2023-09-18T16:54:05;21.03;64.91
69324;DHT22;56470;47.350;8.718;2023-09-18T16:56:31;21.05;65.36
69324;DHT22;56470;47.350;8.718;2023-09-18T16:58:56;21.03;66.00
69324;DHT22;56470;47.350;8.718;2023-09-18T17:01:21;20.99;66.38
69324;DHT22;56470;47.350;8.718;2023-09-18T17:03:47;21.01;66.70
69324;DHT22;56470;47.350;8.718;2023-09-18T17:06:14;20.98;66.88
69324;DHT22;56470;47.350;8.718;2023-09-18T17:08:40;20.90;67.01
69324;DHT22;56470;47.350;8.718;2023-09-18T17:11:05;20.85;67.13
69324;DHT22;56470;47.350;8.718;2023-09-18T17:13:31;20.84;67.15
69324;DHT22;56470;47.350;8.718;2023-09-18T17:15:57;20.80;67.05
69324;DHT22;56470;47.350;8.718;2023-09-18T17:18:22;20.81;67.00
69324;DHT22;56470;47.350;8.718;2023-09-18T17:20:47;20.78;67.00
69324;DHT22;56470;47.350;8.718;2023-09-18T17:23:13;20.80;67.02
69324;DHT22;56470;47.350;8.718;2023-09-18T17:25:39;20.82;67.04
69324;DHT22;56470;47.350;8.718;2023-09-18T17:28:04;20.85;67.14
69324;DHT22;56470;47.350;8.718;2023-09-18T17:30:30;20.90;67.27
69324;DHT22;56470;47.350;8.718;2023-09-18T17:32:59;20.92;67.24
69324;DHT22;56470;47.350;8.718;2023-09-18T17:35:24;20.95;67.15
69324;DHT22;56470;47.350;8.718;2023-09-18T17:37:50;20.98;67.08
69324;DHT22;56470;47.350;8.718;2023-09-18T17:40:16;21.03;67.01
69324;DHT22;56470;47.350;8.718;2023-09-18T17:42:42;21.06;66.91
69324;DHT22;56470;47.350;8.718;2023-09-18T17:45:08;21.13;66.86
69324;DHT22;56470;47.350;8.718;2023-09-18T17:47:33;21.18;66.72
69324;DHT22;56470;47.350;8.718;2023-09-18T17:49:58;21.16;66.66
69324;DHT22;56470;47.350;8.718;2023-09-18T17:52:24;21.19;66.78
69324;DHT22;56470;47.350;8.718;2023-09-18T17:55:08;21.09;67.22